sensor_id;sensor_type;location;lat;lon;timestamp;P1;durP1;ratioP1;P2;durP2;ratioP2
73733;SDS011;62039;50.000;9.064;2023-07-28T00:01:15;1.27;;;0.90;;
73733;SDS011;62039;50.000;9.064;2023-07-28T00:03:41;1.20;;;1.10;;
73733;SDS011;62039;50.000;9.064;2023-07-28T00:06:08;1.20;;;1.10;;
73733;SDS011;62039;50.000;9.064;2023-07-28T00:08:35;1.30;;;1.20;;
73733;SDS011;62039;50.000;9.064;2023-07-28T00:11:02;1.70;;;1.50;;
73733;SDS011;62039;50.000;9.064;2023-07-28T00:13:32;1.37;;;1.23;;
73733;SDS011;62039;50.000;9.064;2023-07-28T00:15:59;1.53;;;1.43;;
73733;SDS011;62039;50.000;9.064;2023-07-28T00:18:26;1.37;;;1.27;;
73733;SDS011;62039;50.000;9.064;2023-07-28T00:20:53;1.00;;;0.97;;
73733;SDS011;62039;50.000;9.064;2023-07-28T00:23:20;1.30;;;1.20;;
73733;SDS011;62039;50.000;9.064;2023-07-28T00:25:47;1.40;;;1.30;;
73733;SDS011;62039;50.000;9.064;2023-07-28T00:28:14;1.73;;;1.13;;
73733;SDS011;62039;50.000;9.064;2023-07-28T00:30:43;1.13;;;1.03;;
73733;SDS011;62039;50.000;9.064;2023-07-28T00:33:10;1.57;;;1.20;;
73733;SDS011;62039;50.000;9.064;2023-07-28T00:35:37;1.20;;;1.10;;
73733;SDS011;62039;50.000;9.064;2023-07-28T00:38:04;1.40;;;1.30;;
73733;SDS011;62039;50.000;9.064;2023-07-28T00:40:31;1.40;;;1.30;;
73733;SDS011;62039;50.000;9.064;2023-07-28T00:42:58;1.40;;;1.10;;
73733;SDS011;62039;50.000;9.064;2023-07-28T00:45:25;1.20;;;1.10;;
73733;SDS011;62039;50.000;9.064;2023-07-28T00:47:55;1.37;;;1.27;;
73733;SDS011;62039;50.000;9.064;2023-07-28T00:50:22;1.40;;;1.30;;
73733;SDS011;62039;50.000;9.064;2023-07-28T00:52:49;1.20;;;1.10;;
73733;SDS011;62039;50.000;9.064;2023-07-28T00:55:16;1.20;;;1.10;;
73733;SDS011;62039;50.000;9.064;2023-07-28T00:57:43;1.27;;;1.17;;
73733;SDS011;62039;50.000;9.064;2023-07-28T01:00:11;1.47;;;1.37;;
73733;SDS011;62039;50.000;9.064;2023-07-28T01:02:39;1.37;;;1.27;;
73733;SDS011;62039;50.000;9.064;2023-07-28T01:05:09;1.10;;;1.00;;
73733;SDS011;62039;50.000;9.064;2023-07-28T01:07:37;1.40;;;1.30;;
73733;SDS011;62039;50.000;9.064;2023-07-28T01:10:10;2.00;;;1.10;;
73733;SDS011;62039;50.000;9.064;2023-07-28T01:12:41;1.20;;;1.03;;
73733;SDS011;62039;50.000;9.064;2023-07-28T01:15:08;1.30;;;1.20;;
73733;SDS011;62039;50.000;9.064;2023-07-28T01:17:36;1.87;;;1.20;;
73733;SDS011;62039;50.000;9.064;2023-07-28T01:20:03;1.43;;;1.13;;
73733;SDS011;62039;50.000;9.064;2023-07-28T01:22:45;1.47;;;1.20;;
73733;SDS011;62039;50.000;9.064;2023-07-28T01:25:18;1.43;;;1.20;;
73733;SDS011;62039;50.000;9.064;2023-07-28T01:27:51;1.27;;;1.17;;
73733;SDS011;62039;50.000;9.064;2023-07-28T01:30:19;1.57;;;1.07;;
73733;SDS011;62039;50.000;9.064;2023-07-28T01:32:46;2.40;;;1.20;;
73733;SDS011;62039;50.000;9.064;2023-07-28T01:35:14;1.43;;;1.20;;
73733;SDS011;62039;50.000;9.064;2023-07-28T01:37:41;1.10;;;0.93;;
73733;SDS011;62039;50.000;9.064;2023-07-28T01:40:08;1.00;;;0.90;;
73733;SDS011;62039;50.000;9.064;2023-07-28T01:42:35;1.30;;;1.20;;
73733;SDS011;62039;50.000;9.064;2023-07-28T01:45:05;1.93;;;1.20;;
73733;SDS011;62039;50.000;9.064;2023-07-28T01:47:33;1.20;;;1.10;;
73733;SDS011;62039;50.000;9.064;2023-07-28T01:50:00;1.70;;;1.23;;
73733;SDS011;62039;50.000;9.064;2023-07-28T01:52:27;1.60;;;1.20;;
73733;SDS011;62039;50.000;9.064;2023-07-28T01:54:54;1.60;;;1.50;;
73733;SDS011;62039;50.000;9.064;2023-07-28T01:57:21;1.47;;;1.13;;
73733;SDS011;62039;50.000;9.064;2023-07-28T01:59:48;2.13;;;1.30;;
73733;SDS011;62039;50.000;9.064;2023-07-28T02:02:18;1.73;;;1.17;;
73733;SDS011;62039;50.000;9.064;2023-07-28T02:04:45;1.90;;;1.20;;
73733;SDS011;62039;50.000;9.064;2023-07-28T02:07:11;1.77;;;1.37;;
73733;SDS011;62039;50.000;9.064;2023-07-28T02:09:38;1.27;;;1.17;;
73733;SDS011;62039;50.000;9.064;2023-07-28T02:12:06;1.40;;;1.30;;
73733;SDS011;62039;50.000;9.064;2023-07-28T02:14:33;1.40;;;1.30;;
73733;SDS011;62039;50.000;9.064;2023-07-28T02:17:00;1.50;;;1.40;;
73733;SDS011;62039;50.000;9.064;2023-07-28T02:19:30;1.67;;;1.43;;
73733;SDS011;62039;50.000;9.064;2023-07-28T02:21:57;1.30;;;1.20;;
73733;SDS011;62039;50.000;9.064;2023-07-28T02:24:24;1.30;;;1.20;;
73733;SDS011;62039;50.000;9.064;2023-07-28T02:26:51;1.47;;;1.30;;
73733;SDS011;62039;50.000;9.064;2023-07-28T02:29:18;1.17;;;1.07;;
73733;SDS011;62039;50.000;9.064;2023-07-28T02:31:44;2.20;;;1.43;;
73733;SDS011;62039;50.000;9.064;2023-07-28T02:34:11;1.40;;;1.30;;
73733;SDS011;62039;50.000;9.064;2023-07-28T02:36:41;2.37;;;1.53;;
73733;SDS011;62039;50.000;9.064;2023-07-28T02:39:08;1.37;;;1.23;;
73733;SDS011;62039;50.000;9.064;2023-07-28T02:41:35;1.53;;;1.43;;
73733;SDS011;62039;50.000;9.064;2023-07-28T02:44:02;1.53;;;1.43;;
73733;SDS011;62039;50.000;9.064;2023-07-28T02:46:30;1.47;;;1.37;;
73733;SDS011;62039;50.000;9.064;2023-07-28T02:48:57;1.30;;;1.20;;
73733;SDS011;62039;50.000;9.064;2023-07-28T02:51:24;1.60;;;1.20;;
73733;SDS011;62039;50.000;9.064;2023-07-28T02:53:54;1.20;;;1.10;;
73733;SDS011;62039;50.000;9.064;2023-07-28T02:56:21;1.33;;;1.13;;
73733;SDS011;62039;50.000;9.064;2023-07-28T02:58:48;1.37;;;1.27;;
73733;SDS011;62039;50.000;9.064;2023-07-28T03:01:15;1.67;;;1.20;;
73733;SDS011;62039;50.000;9.064;2023-07-28T03:03:42;1.30;;;1.20;;
73733;SDS011;62039;50.000;9.064;2023-07-28T03:06:09;1.30;;;1.20;;
73733;SDS011;62039;50.000;9.064;2023-07-28T03:08:36;1.23;;;1.13;;
73733;SDS011;62039;50.000;9.064;2023-07-28T03:11:06;1.57;;;1.47;;
73733;SDS011;62039;50.000;9.064;2023-07-28T03:13:33;1.30;;;1.20;;
73733;SDS011;62039;50.000;9.064;2023-07-28T03:16:00;1.73;;;1.50;;
73733;SDS011;62039;50.000;9.064;2023-07-28T03:18:27;1.53;;;1.43;;
73733;SDS011;62039;50.000;9.064;2023-07-28T03:20:54;1.63;;;1.13;;
73733;SDS011;62039;50.000;9.064;2023-07-28T03:23:21;1.90;;;1.40;;
73733;SDS011;62039;50.000;9.064;2023-07-28T03:25:47;1.93;;;1.50;;
73733;SDS011;62039;50.000;9.064;2023-07-28T03:28:17;1.40;;;1.30;;
73733;SDS011;62039;50.000;9.064;2023-07-28T03:30:44;1.20;;;1.10;;
73733;SDS011;62039;50.000;9.064;2023-07-28T03:33:11;1.50;;;1.40;;
73733;SDS011;62039;50.000;9.064;2023-07-28T03:35:38;1.77;;;1.37;;
73733;SDS011;62039;50.000;9.064;2023-07-28T03:38:05;1.73;;;1.23;;
73733;SDS011;62039;50.000;9.064;2023-07-28T03:40:32;2.80;;;1.20;;
73733;SDS011;62039;50.000;9.064;2023-07-28T03:42:59;1.17;;;1.07;;
73733;SDS011;62039;50.000;9.064;2023-07-28T03:45:29;2.47;;;1.23;;
73733;SDS011;62039;50.000;9.064;2023-07-28T03:47:56;1.10;;;1.07;;
73733;SDS011;62039;50.000;9.064;2023-07-28T03:50:23;1.30;;;1.20;;
73733;SDS011;62039;50.000;9.064;2023-07-28T03:52:50;1.07;;;1.00;;
73733;SDS011;62039;50.000;9.064;2023-07-28T03:55:17;1.10;;;1.00;;
73733;SDS011;62039;50.000;9.064;2023-07-28T03:57:44;1.67;;;1.20;;
73733;SDS011;62039;50.000;9.064;2023-07-28T04:00:12;1.60;;;1.23;;
73733;SDS011;62039;50.000;9.064;2023-07-28T04:02:42;1.40;;;1.10;;
73733;SDS011;62039;50.000;9.064;2023-07-28T04:05:09;1.07;;;1.00;;
73733;SDS011;62039;50.000;9.064;2023-07-28T04:07:36;1.77;;;1.20;;
73733;SDS011;62039;50.000;9.064;2023-07-28T04:10:03;1.40;;;1.03;;
73733;SDS011;62039;50.000;9.064;2023-07-28T04:12:31;1.23;;;1.00;;
73733;SDS011;62039;50.000;9.064;2023-07-28T04:14:58;1.03;;;0.93;;
73733;SDS011;62039;50.000;9.064;2023-07-28T04:17:25;1.43;;;1.10;;
73733;SDS011;62039;50.000;9.064;2023-07-28T04:19:55;1.10;;;1.00;;
73733;SDS011;62039;50.000;9.064;2023-07-28T04:22:22;1.77;;;0.93;;
73733;SDS011;62039;50.000;9.064;2023-07-28T04:24:49;1.30;;;1.20;;
73733;SDS011;62039;50.000;9.064;2023-07-28T04:27:16;1.40;;;1.10;;
73733;SDS011;62039;50.000;9.064;2023-07-28T04:29:43;1.13;;;1.03;;
73733;SDS011;62039;50.000;9.064;2023-07-28T04:32:10;2.43;;;1.27;;
73733;SDS011;62039;50.000;9.064;2023-07-28T04:34:37;0.93;;;0.90;;
73733;SDS011;62039;50.000;9.064;2023-07-28T04:37:07;1.40;;;1.00;;
73733;SDS011;62039;50.000;9.064;2023-07-28T04:39:34;1.00;;;0.90;;
73733;SDS011;62039;50.000;9.064;2023-07-28T04:42:01;1.03;;;0.97;;
73733;SDS011;62039;50.000;9.064;2023-07-28T04:44:28;1.10;;;1.00;;
73733;SDS011;62039;50.000;9.064;2023-07-28T04:46:55;1.70;;;1.00;;
73733;SDS011;62039;50.000;9.064;2023-07-28T04:49:22;1.43;;;1.10;;
73733;SDS011;62039;50.000;9.064;2023-07-28T04:51:49;1.27;;;1.00;;
73733;SDS011;62039;50.000;9.064;2023-07-28T04:54:18;1.30;;;1.20;;
73733;SDS011;62039;50.000;9.064;2023-07-28T04:56:48;1.00;;;0.90;;
73733;SDS011;62039;50.000;9.064;2023-07-28T04:59:15;0.93;;;0.83;;
73733;SDS011;62039;50.000;9.064;2023-07-28T05:01:42;1.20;;;1.10;;
73733;SDS011;62039;50.000;9.064;2023-07-28T05:04:09;1.30;;;0.90;;
73733;SDS011;62039;50.000;9.064;2023-07-28T05:06:36;0.90;;;0.90;;
73733;SDS011;62039;50.000;9.064;2023-07-28T05:09:03;1.53;;;0.90;;
73733;SDS011;62039;50.000;9.064;2023-07-28T05:11:33;0.93;;;0.80;;
73733;SDS011;62039;50.000;9.064;2023-07-28T05:14:00;0.90;;;0.83;;
73733;SDS011;62039;50.000;9.064;2023-07-28T05:16:27;1.07;;;1.00;;
73733;SDS011;62039;50.000;9.064;2023-07-28T05:18:55;1.57;;;0.90;;
73733;SDS011;62039;50.000;9.064;2023-07-28T05:21:21;1.10;;;1.00;;
73733;SDS011;62039;50.000;9.064;2023-07-28T05:23:48;0.87;;;0.83;;
73733;SDS011;62039;50.000;9.064;2023-07-28T05:26:15;1.00;;;0.87;;
73733;SDS011;62039;50.000;9.064;2023-07-28T05:28:45;0.87;;;0.87;;
73733;SDS011;62039;50.000;9.064;2023-07-28T05:31:12;0.80;;;0.77;;
73733;SDS011;62039;50.000;9.064;2023-07-28T05:33:39;1.17;;;0.90;;
73733;SDS011;62039;50.000;9.064;2023-07-28T05:36:06;0.80;;;0.80;;
73733;SDS011;62039;50.000;9.064;2023-07-28T05:38:33;1.00;;;0.90;;
73733;SDS011;62039;50.000;9.064;2023-07-28T05:41:00;1.73;;;1.07;;
73733;SDS011;62039;50.000;9.064;2023-07-28T05:43:28;0.90;;;0.90;;
73733;SDS011;62039;50.000;9.064;2023-07-28T05:45:58;1.07;;;0.70;;
73733;SDS011;62039;50.000;9.064;2023-07-28T05:48:26;1.40;;;0.90;;
73733;SDS011;62039;50.000;9.064;2023-07-28T05:50:53;0.80;;;0.80;;
73733;SDS011;62039;50.000;9.064;2023-07-28T05:53:20;1.07;;;0.93;;
73733;SDS011;62039;50.000;9.064;2023-07-28T05:55:48;0.70;;;0.70;;
73733;SDS011;62039;50.000;9.064;2023-07-28T05:58:15;1.07;;;0.90;;
73733;SDS011;62039;50.000;9.064;2023-07-28T06:00:42;1.10;;;1.07;;
73733;SDS011;62039;50.000;9.064;2023-07-28T06:03:11;1.17;;;0.80;;
73733;SDS011;62039;50.000;9.064;2023-07-28T06:05:39;0.80;;;0.80;;
73733;SDS011;62039;50.000;9.064;2023-07-28T06:08:06;1.60;;;1.10;;
73733;SDS011;62039;50.000;9.064;2023-07-28T06:10:33;1.27;;;0.90;;
73733;SDS011;62039;50.000;9.064;2023-07-28T06:13:00;1.30;;;1.00;;
73733;SDS011;62039;50.000;9.064;2023-07-28T06:15:27;1.13;;;0.90;;
73733;SDS011;62039;50.000;9.064;2023-07-28T06:17:54;1.07;;;1.00;;
73733;SDS011;62039;50.000;9.064;2023-07-28T06:20:24;1.00;;;0.90;;
73733;SDS011;62039;50.000;9.064;2023-07-28T06:22:51;1.77;;;1.30;;
73733;SDS011;62039;50.000;9.064;2023-07-28T06:25:18;1.20;;;1.10;;
73733;SDS011;62039;50.000;9.064;2023-07-28T06:27:45;1.23;;;1.00;;
73733;SDS011;62039;50.000;9.064;2023-07-28T06:30:12;1.33;;;1.13;;
73733;SDS011;62039;50.000;9.064;2023-07-28T06:32:39;0.80;;;0.80;;
73733;SDS011;62039;50.000;9.064;2023-07-28T06:35:06;1.10;;;1.00;;
73733;SDS011;62039;50.000;9.064;2023-07-28T06:37:36;2.10;;;1.27;;
73733;SDS011;62039;50.000;9.064;2023-07-28T06:40:04;0.87;;;0.80;;
73733;SDS011;62039;50.000;9.064;2023-07-28T06:42:32;0.97;;;0.93;;
73733;SDS011;62039;50.000;9.064;2023-07-28T06:44:59;0.90;;;0.90;;
73733;SDS011;62039;50.000;9.064;2023-07-28T06:47:26;0.87;;;0.87;;
73733;SDS011;62039;50.000;9.064;2023-07-28T06:49:53;0.73;;;0.70;;
73733;SDS011;62039;50.000;9.064;2023-07-28T06:52:20;0.57;;;0.57;;
73733;SDS011;62039;50.000;9.064;2023-07-28T06:54:50;0.77;;;0.77;;
73733;SDS011;62039;50.000;9.064;2023-07-28T06:57:17;0.80;;;0.70;;
73733;SDS011;62039;50.000;9.064;2023-07-28T06:59:44;0.83;;;0.80;;
73733;SDS011;62039;50.000;9.064;2023-07-28T07:02:11;0.60;;;0.60;;
73733;SDS011;62039;50.000;9.064;2023-07-28T07:04:38;1.07;;;1.07;;
73733;SDS011;62039;50.000;9.064;2023-07-28T07:07:07;0.80;;;0.80;;
73733;SDS011;62039;50.000;9.064;2023-07-28T07:09:34;0.80;;;0.80;;
73733;SDS011;62039;50.000;9.064;2023-07-28T07:12:04;0.93;;;0.63;;
73733;SDS011;62039;50.000;9.064;2023-07-28T07:14:31;0.70;;;0.70;;
73733;SDS011;62039;50.000;9.064;2023-07-28T07:16:58;0.77;;;0.73;;
73733;SDS011;62039;50.000;9.064;2023-07-28T07:19:27;0.67;;;0.67;;
73733;SDS011;62039;50.000;9.064;2023-07-28T07:21:54;0.70;;;0.70;;
73733;SDS011;62039;50.000;9.064;2023-07-28T07:24:21;0.73;;;0.70;;
73733;SDS011;62039;50.000;9.064;2023-07-28T07:26:48;0.50;;;0.50;;
73733;SDS011;62039;50.000;9.064;2023-07-28T07:29:17;1.07;;;0.70;;
73733;SDS011;62039;50.000;9.064;2023-07-28T07:31:44;1.03;;;0.80;;
73733;SDS011;62039;50.000;9.064;2023-07-28T07:34:11;1.33;;;0.70;;
73733;SDS011;62039;50.000;9.064;2023-07-28T07:36:38;0.57;;;0.57;;
73733;SDS011;62039;50.000;9.064;2023-07-28T07:39:05;0.80;;;0.80;;
73733;SDS011;62039;50.000;9.064;2023-07-28T07:41:33;0.70;;;0.70;;
73733;SDS011;62039;50.000;9.064;2023-07-28T07:44:00;1.37;;;0.70;;
73733;SDS011;62039;50.000;9.064;2023-07-28T07:46:30;0.60;;;0.50;;
73733;SDS011;62039;50.000;9.064;2023-07-28T07:48:57;1.77;;;0.60;;
73733;SDS011;62039;50.000;9.064;2023-07-28T07:51:24;0.70;;;0.53;;
73733;SDS011;62039;50.000;9.064;2023-07-28T07:53:51;0.60;;;0.60;;
73733;SDS011;62039;50.000;9.064;2023-07-28T07:56:18;0.67;;;0.67;;
73733;SDS011;62039;50.000;9.064;2023-07-28T07:58:45;0.60;;;0.60;;
73733;SDS011;62039;50.000;9.064;2023-07-28T08:01:12;0.50;;;0.50;;
73733;SDS011;62039;50.000;9.064;2023-07-28T08:03:41;0.70;;;0.70;;
73733;SDS011;62039;50.000;9.064;2023-07-28T08:06:08;1.60;;;0.60;;
73733;SDS011;62039;50.000;9.064;2023-07-28T08:08:38;0.67;;;0.67;;
73733;SDS011;62039;50.000;9.064;2023-07-28T08:11:09;1.80;;;0.80;;
73733;SDS011;62039;50.000;9.064;2023-07-28T08:13:37;0.80;;;0.50;;
73733;SDS011;62039;50.000;9.064;2023-07-28T08:16:04;0.50;;;0.50;;
73733;SDS011;62039;50.000;9.064;2023-07-28T08:18:31;0.80;;;0.70;;
73733;SDS011;62039;50.000;9.064;2023-07-28T08:21:01;0.73;;;0.70;;
73733;SDS011;62039;50.000;9.064;2023-07-28T08:23:28;1.07;;;0.70;;
73733;SDS011;62039;50.000;9.064;2023-07-28T08:25:55;0.70;;;0.53;;
73733;SDS011;62039;50.000;9.064;2023-07-28T08:28:23;0.70;;;0.60;;
73733;SDS011;62039;50.000;9.064;2023-07-28T08:30:54;1.10;;;0.87;;
73733;SDS011;62039;50.000;9.064;2023-07-28T08:33:21;0.60;;;0.60;;
73733;SDS011;62039;50.000;9.064;2023-07-28T08:35:48;0.80;;;0.80;;
73733;SDS011;62039;50.000;9.064;2023-07-28T08:38:18;0.60;;;0.60;;
73733;SDS011;62039;50.000;9.064;2023-07-28T08:40:45;1.23;;;0.93;;
73733;SDS011;62039;50.000;9.064;2023-07-28T08:43:12;0.70;;;0.70;;
73733;SDS011;62039;50.000;9.064;2023-07-28T08:45:39;2.10;;;0.97;;
73733;SDS011;62039;50.000;9.064;2023-07-28T08:48:06;0.70;;;0.70;;
73733;SDS011;62039;50.000;9.064;2023-07-28T08:50:33;0.83;;;0.83;;
73733;SDS011;62039;50.000;9.064;2023-07-28T08:53:00;0.80;;;0.80;;
73733;SDS011;62039;50.000;9.064;2023-07-28T08:55:30;0.90;;;0.90;;
73733;SDS011;62039;50.000;9.064;2023-07-28T08:57:56;0.70;;;0.70;;
73733;SDS011;62039;50.000;9.064;2023-07-28T09:00:40;0.70;;;0.70;;
73733;SDS011;62039;50.000;9.064;2023-07-28T09:03:08;0.90;;;0.90;;
73733;SDS011;62039;50.000;9.064;2023-07-28T09:05:35;0.70;;;0.70;;
73733;SDS011;62039;50.000;9.064;2023-07-28T09:08:02;1.40;;;1.00;;
73733;SDS011;62039;50.000;9.064;2023-07-28T09:10:42;1.10;;;0.90;;
73733;SDS011;62039;50.000;9.064;2023-07-28T09:13:10;0.90;;;0.70;;
73733;SDS011;62039;50.000;9.064;2023-07-28T09:15:42;0.60;;;0.60;;
73733;SDS011;62039;50.000;9.064;2023-07-28T09:18:10;0.70;;;0.70;;
73733;SDS011;62039;50.000;9.064;2023-07-28T09:20:39;0.83;;;0.83;;
73733;SDS011;62039;50.000;9.064;2023-07-28T09:23:07;1.07;;;0.87;;
73733;SDS011;62039;50.000;9.064;2023-07-28T09:25:36;0.80;;;0.70;;
73733;SDS011;62039;50.000;9.064;2023-07-28T09:28:06;0.63;;;0.63;;
73733;SDS011;62039;50.000;9.064;2023-07-28T09:30:43;1.20;;;1.10;;
73733;SDS011;62039;50.000;9.064;2023-07-28T09:33:12;1.07;;;0.97;;
73733;SDS011;62039;50.000;9.064;2023-07-28T09:35:49;1.50;;;1.00;;
73733;SDS011;62039;50.000;9.064;2023-07-28T09:38:16;1.23;;;1.00;;
73733;SDS011;62039;50.000;9.064;2023-07-28T09:40:45;0.73;;;0.73;;
73733;SDS011;62039;50.000;9.064;2023-07-28T09:43:15;0.80;;;0.80;;
73733;SDS011;62039;50.000;9.064;2023-07-28T09:45:42;0.50;;;0.50;;
73733;SDS011;62039;50.000;9.064;2023-07-28T09:48:11;0.60;;;0.60;;
73733;SDS011;62039;50.000;9.064;2023-07-28T09:50:40;0.60;;;0.60;;
73733;SDS011;62039;50.000;9.064;2023-07-28T09:53:08;0.60;;;0.60;;
73733;SDS011;62039;50.000;9.064;2023-07-28T09:55:37;0.80;;;0.80;;
73733;SDS011;62039;50.000;9.064;2023-07-28T09:58:05;0.87;;;0.87;;
73733;SDS011;62039;50.000;9.064;2023-07-28T10:00:39;0.80;;;0.80;;
73733;SDS011;62039;50.000;9.064;2023-07-28T10:03:07;1.30;;;0.70;;
73733;SDS011;62039;50.000;9.064;2023-07-28T10:05:35;0.67;;;0.63;;
73733;SDS011;62039;50.000;9.064;2023-07-28T10:08:02;0.80;;;0.80;;
73733;SDS011;62039;50.000;9.064;2023-07-28T10:10:30;0.70;;;0.70;;
73733;SDS011;62039;50.000;9.064;2023-07-28T10:12:58;1.50;;;0.70;;
73733;SDS011;62039;50.000;9.064;2023-07-28T10:15:29;0.80;;;0.80;;
73733;SDS011;62039;50.000;9.064;2023-07-28T10:17:59;2.40;;;0.70;;
73733;SDS011;62039;50.000;9.064;2023-07-28T10:20:31;0.60;;;0.60;;
73733;SDS011;62039;50.000;9.064;2023-07-28T10:23:06;0.60;;;0.60;;
73733;SDS011;62039;50.000;9.064;2023-07-28T10:25:37;0.70;;;0.70;;
73733;SDS011;62039;50.000;9.064;2023-07-28T10:28:05;0.70;;;0.70;;
73733;SDS011;62039;50.000;9.064;2023-07-28T13:19:36;1.40;;;0.93;;
73733;SDS011;62039;50.000;9.064;2023-07-28T13:22:03;0.80;;;0.80;;
73733;SDS011;62039;50.000;9.064;2023-07-28T13:24:30;1.00;;;0.90;;
73733;SDS011;62039;50.000;9.064;2023-07-28T13:26:57;1.10;;;0.90;;
73733;SDS011;62039;50.000;9.064;2023-07-28T13:29:24;0.90;;;0.90;;
73733;SDS011;62039;50.000;9.064;2023-07-28T13:31:51;3.13;;;1.20;;
73733;SDS011;62039;50.000;9.064;2023-07-28T13:34:23;0.83;;;0.80;;
73733;SDS011;62039;50.000;9.064;2023-07-28T13:36:53;1.10;;;0.80;;
73733;SDS011;62039;50.000;9.064;2023-07-28T13:39:19;1.80;;;1.20;;
73733;SDS011;62039;50.000;9.064;2023-07-28T13:41:46;1.20;;;1.10;;
73733;SDS011;62039;50.000;9.064;2023-07-28T13:44:13;2.30;;;1.10;;
73733;SDS011;62039;50.000;9.064;2023-07-28T13:46:41;1.07;;;0.97;;
73733;SDS011;62039;50.000;9.064;2023-07-28T13:49:08;0.80;;;0.80;;
73733;SDS011;62039;50.000;9.064;2023-07-28T13:51:35;1.00;;;0.90;;
73733;SDS011;62039;50.000;9.064;2023-07-28T13:54:09;1.30;;;0.90;;
73733;SDS011;62039;50.000;9.064;2023-07-28T13:56:39;0.90;;;0.90;;
73733;SDS011;62039;50.000;9.064;2023-07-28T13:59:26;1.20;;;1.10;;
73733;SDS011;62039;50.000;9.064;2023-07-28T14:01:53;1.43;;;0.90;;
73733;SDS011;62039;50.000;9.064;2023-07-28T14:04:20;1.20;;;1.10;;
73733;SDS011;62039;50.000;9.064;2023-07-28T14:06:47;1.40;;;1.10;;
73733;SDS011;62039;50.000;9.064;2023-07-28T14:09:17;0.90;;;0.90;;
73733;SDS011;62039;50.000;9.064;2023-07-28T14:11:44;1.00;;;1.00;;
73733;SDS011;62039;50.000;9.064;2023-07-28T14:14:11;1.33;;;0.93;;
73733;SDS011;62039;50.000;9.064;2023-07-28T14:16:38;0.90;;;0.90;;
73733;SDS011;62039;50.000;9.064;2023-07-28T14:19:05;0.97;;;0.97;;
73733;SDS011;62039;50.000;9.064;2023-07-28T14:21:31;1.10;;;1.00;;
73733;SDS011;62039;50.000;9.064;2023-07-28T14:24:00;1.70;;;1.43;;
73733;SDS011;62039;50.000;9.064;2023-07-28T14:26:30;2.07;;;1.10;;
73733;SDS011;62039;50.000;9.064;2023-07-28T14:28:57;2.23;;;1.37;;
73733;SDS011;62039;50.000;9.064;2023-07-28T14:31:24;1.30;;;1.20;;
73733;SDS011;62039;50.000;9.064;2023-07-28T14:33:51;1.30;;;1.03;;
73733;SDS011;62039;50.000;9.064;2023-07-28T14:36:18;1.40;;;1.30;;
73733;SDS011;62039;50.000;9.064;2023-07-28T14:38:45;1.50;;;1.40;;
73733;SDS011;62039;50.000;9.064;2023-07-28T14:41:12;1.27;;;1.17;;
73733;SDS011;62039;50.000;9.064;2023-07-28T14:43:41;1.10;;;1.00;;
73733;SDS011;62039;50.000;9.064;2023-07-28T14:46:08;1.03;;;0.97;;
73733;SDS011;62039;50.000;9.064;2023-07-28T14:48:35;1.20;;;1.10;;
73733;SDS011;62039;50.000;9.064;2023-07-28T14:51:02;1.10;;;1.00;;
73733;SDS011;62039;50.000;9.064;2023-07-28T14:53:32;1.20;;;1.00;;
73733;SDS011;62039;50.000;9.064;2023-07-28T14:56:01;1.20;;;1.10;;
73733;SDS011;62039;50.000;9.064;2023-07-28T14:58:30;1.37;;;1.27;;
73733;SDS011;62039;50.000;9.064;2023-07-28T15:01:00;1.20;;;1.10;;
73733;SDS011;62039;50.000;9.064;2023-07-28T15:03:28;1.00;;;0.90;;
73733;SDS011;62039;50.000;9.064;2023-07-28T15:05:55;1.30;;;1.20;;
73733;SDS011;62039;50.000;9.064;2023-07-28T15:08:23;1.27;;;1.17;;
73733;SDS011;62039;50.000;9.064;2023-07-28T15:10:50;1.03;;;1.03;;
73733;SDS011;62039;50.000;9.064;2023-07-28T15:13:17;1.20;;;1.10;;
73733;SDS011;62039;50.000;9.064;2023-07-28T15:15:44;2.13;;;1.10;;
73733;SDS011;62039;50.000;9.064;2023-07-28T15:18:13;1.63;;;1.30;;
73733;SDS011;62039;50.000;9.064;2023-07-28T15:20:41;1.33;;;1.23;;
73733;SDS011;62039;50.000;9.064;2023-07-28T15:23:08;0.80;;;0.80;;
73733;SDS011;62039;50.000;9.064;2023-07-28T15:25:36;1.03;;;0.93;;
73733;SDS011;62039;50.000;9.064;2023-07-28T15:28:03;1.17;;;1.07;;
73733;SDS011;62039;50.000;9.064;2023-07-28T15:30:30;1.20;;;1.10;;
73733;SDS011;62039;50.000;9.064;2023-07-28T15:32:57;0.90;;;0.90;;
73733;SDS011;62039;50.000;9.064;2023-07-28T15:35:27;1.27;;;0.97;;
73733;SDS011;62039;50.000;9.064;2023-07-28T15:37:54;2.50;;;1.03;;
73733;SDS011;62039;50.000;9.064;2023-07-28T15:40:21;0.70;;;0.70;;
73733;SDS011;62039;50.000;9.064;2023-07-28T15:42:48;1.73;;;0.80;;
73733;SDS011;62039;50.000;9.064;2023-07-28T15:45:15;1.00;;;0.87;;
73733;SDS011;62039;50.000;9.064;2023-07-28T15:47:42;0.90;;;0.90;;
73733;SDS011;62039;50.000;9.064;2023-07-28T15:50:09;0.70;;;0.70;;
73733;SDS011;62039;50.000;9.064;2023-07-28T15:52:39;0.70;;;0.70;;
73733;SDS011;62039;50.000;9.064;2023-07-28T15:55:06;1.00;;;0.87;;
73733;SDS011;62039;50.000;9.064;2023-07-28T15:57:33;1.10;;;0.90;;
73733;SDS011;62039;50.000;9.064;2023-07-28T16:00:00;0.80;;;0.70;;
73733;SDS011;62039;50.000;9.064;2023-07-28T16:02:27;0.80;;;0.80;;
73733;SDS011;62039;50.000;9.064;2023-07-28T16:04:54;0.90;;;0.90;;
73733;SDS011;62039;50.000;9.064;2023-07-28T16:07:21;0.70;;;0.70;;
73733;SDS011;62039;50.000;9.064;2023-07-28T16:09:50;0.60;;;0.60;;
73733;SDS011;62039;50.000;9.064;2023-07-28T16:12:17;0.60;;;0.60;;
73733;SDS011;62039;50.000;9.064;2023-07-28T16:14:44;0.60;;;0.60;;
73733;SDS011;62039;50.000;9.064;2023-07-28T16:17:11;0.47;;;0.47;;
73733;SDS011;62039;50.000;9.064;2023-07-28T16:19:39;0.77;;;0.70;;
73733;SDS011;62039;50.000;9.064;2023-07-28T16:22:06;0.67;;;0.63;;
73733;SDS011;62039;50.000;9.064;2023-07-28T16:24:33;0.50;;;0.50;;
73733;SDS011;62039;50.000;9.064;2023-07-28T16:27:02;0.60;;;0.60;;
73733;SDS011;62039;50.000;9.064;2023-07-28T16:29:30;0.43;;;0.43;;
73733;SDS011;62039;50.000;9.064;2023-07-28T16:31:57;0.50;;;0.50;;
73733;SDS011;62039;50.000;9.064;2023-07-28T16:34:24;0.60;;;0.60;;
73733;SDS011;62039;50.000;9.064;2023-07-28T16:36:51;0.40;;;0.40;;
73733;SDS011;62039;50.000;9.064;2023-07-28T16:39:18;0.47;;;0.47;;
73733;SDS011;62039;50.000;9.064;2023-07-28T16:41:45;0.33;;;0.33;;
73733;SDS011;62039;50.000;9.064;2023-07-28T16:44:14;0.60;;;0.60;;
73733;SDS011;62039;50.000;9.064;2023-07-28T16:46:41;0.30;;;0.30;;
73733;SDS011;62039;50.000;9.064;2023-07-28T16:49:08;0.60;;;0.60;;
73733;SDS011;62039;50.000;9.064;2023-07-28T16:51:36;0.53;;;0.53;;
73733;SDS011;62039;50.000;9.064;2023-07-28T16:54:03;0.60;;;0.60;;
73733;SDS011;62039;50.000;9.064;2023-07-28T16:56:30;0.50;;;0.50;;
73733;SDS011;62039;50.000;9.064;2023-07-28T16:58:57;0.40;;;0.40;;
73733;SDS011;62039;50.000;9.064;2023-07-28T17:01:26;0.50;;;0.50;;
73733;SDS011;62039;50.000;9.064;2023-07-28T17:03:53;0.60;;;0.60;;
73733;SDS011;62039;50.000;9.064;2023-07-28T17:06:20;0.60;;;0.60;;
73733;SDS011;62039;50.000;9.064;2023-07-28T17:08:47;0.70;;;0.70;;
73733;SDS011;62039;50.000;9.064;2023-07-28T17:11:14;0.60;;;0.60;;
73733;SDS011;62039;50.000;9.064;2023-07-28T17:13:41;0.90;;;0.67;;
73733;SDS011;62039;50.000;9.064;2023-07-28T17:16:08;0.70;;;0.70;;
73733;SDS011;62039;50.000;9.064;2023-07-28T17:18:38;0.60;;;0.60;;
73733;SDS011;62039;50.000;9.064;2023-07-28T17:21:05;0.60;;;0.60;;
73733;SDS011;62039;50.000;9.064;2023-07-28T17:23:32;0.60;;;0.60;;
73733;SDS011;62039;50.000;9.064;2023-07-28T17:25:59;0.67;;;0.67;;
73733;SDS011;62039;50.000;9.064;2023-07-28T17:28:26;0.50;;;0.50;;
73733;SDS011;62039;50.000;9.064;2023-07-28T17:30:53;0.50;;;0.50;;
73733;SDS011;62039;50.000;9.064;2023-07-28T17:33:20;0.60;;;0.60;;
73733;SDS011;62039;50.000;9.064;2023-07-28T17:35:49;0.40;;;0.40;;
73733;SDS011;62039;50.000;9.064;2023-07-28T17:38:16;0.80;;;0.80;;
73733;SDS011;62039;50.000;9.064;2023-07-28T17:40:43;0.70;;;0.70;;